Time;durP1;ratioP1;P1;durP2;ratioP2;P2;SDS_P1;SDS_P2;PMS_P1;PMS_P2;Temp;Humidity;BMP_temperature;BMP_pressure;BME280_temperature;BME280_humidity;BME280_pressure;Samples;Min_cycle;Max_cycle;Signal;HPM_P1;HPM_P2
2023/05/01 00:00:51;;;;;;;;;;;;;;;13.49;23.80;100851.53;5091839;28;20321;-64
2023/05/01 00:03:17;;;;;;;;;;;;;;;13.44;23.95;100850.47;5092405;28;19920;-67
2023/05/01 00:05:43;;;;;;;;;;;;;;;13.46;23.88;100853.81;5091896;28;20272;-66
2023/05/01 00:08:08;;;;;;;;;;;;;;;13.41;23.53;100856.28;5091825;28;19919;-65
2023/05/01 00:10:35;;;;;;;;;;;;;;;13.40;23.92;100854.63;5091388;28;19920;-66
2023/05/01 00:13:00;;;;;;;;;;;;;;;13.40;23.78;100850.06;5092084;28;19935;-65
2023/05/01 00:15:25;;;;;;;;;;;;;;;13.44;24.00;100847.78;5092633;28;19912;-66
2023/05/01 00:17:52;;;;;;;;;;;;;;;13.45;24.12;100844.06;5092703;28;20379;-67
2023/05/01 00:20:18;;;;;;;;;;;;;;;13.41;23.87;100843.66;5092302;28;19912;-66
2023/05/01 00:22:43;;;;;;;;;;;;;;;13.37;23.86;100845.06;5092023;28;19993;-66
2023/05/01 00:25:09;;;;;;;;;;;;;;;13.44;23.83;100842.41;5092485;28;20017;-65
2023/05/01 00:27:34;;;;;;;;;;;;;;;13.41;23.70;100840.09;5091790;28;19912;-65
2023/05/01 00:30:00;;;;;;;;;;;;;;;13.52;23.76;100839.50;5092074;28;19923;-66
2023/05/01 00:32:31;;;;;;;;;;;;;;;13.52;23.88;100832.25;5092048;28;20002;-67
2023/05/01 00:34:56;;;;;;;;;;;;;;;13.58;23.79;100835.16;5092451;28;20077;-66
2023/05/01 00:37:22;;;;;;;;;;;;;;;13.62;23.46;100836.44;5091316;28;19919;-66
2023/05/01 00:39:47;;;;;;;;;;;;;;;13.51;23.87;100843.25;5092048;28;19919;-66
2023/05/01 00:42:13;;;;;;;;;;;;;;;13.49;23.93;100837.22;5092154;28;19927;-66
2023/05/01 00:44:38;;;;;;;;;;;;;;;13.61;23.39;100832.88;5092028;28;20499;-66
2023/05/01 00:47:03;;;;;;;;;;;;;;;13.62;23.77;100839.94;5092065;28;20407;-66
2023/05/01 00:49:29;;;;;;;;;;;;;;;13.57;23.58;100828.09;5090629;28;19930;-67
2023/05/01 00:51:54;;;;;;;;;;;;;;;13.41;23.94;100829.31;5091519;28;20010;-66
2023/05/01 00:54:21;;;;;;;;;;;;;;;13.50;24.01;100818.13;5091575;28;19939;-66
2023/05/01 00:56:47;;;;;;;;;;;;;;;13.36;24.11;100819.94;5091905;28;20237;-67
2023/05/01 00:59:13;;;;;;;;;;;;;;;13.36;23.92;100816.44;5091978;28;19912;-66
2023/05/01 01:01:40;;;;;;;;;;;;;;;13.34;24.34;100815.81;5092108;28;19974;-65
2023/05/01 01:04:06;;;;;;;;;;;;;;;13.36;23.89;100813.75;5091305;28;20283;-66
2023/05/01 01:06:48;;;;;;;;;;;;;;;13.40;24.17;100814.16;5091640;28;19919;-66
2023/05/01 01:09:16;;;;;;;;;;;;;;;13.37;24.47;100812.69;5091418;28;19912;-66
2023/05/01 01:11:50;;;;;;;;;;;;;;;13.35;24.24;100812.91;5090972;28;19955;-66
2023/05/01 01:14:36;;;;;;;;;;;;;;;13.38;24.17;100805.44;5093009;28;19920;-66
2023/05/01 01:17:02;;;;;;;;;;;;;;;13.31;23.86;100805.41;5087125;28;19923;-66
2023/05/01 01:19:30;;;;;;;;;;;;;;;13.33;23.98;100798.81;5091083;28;20068;-66
2023/05/01 01:22:02;;;;;;;;;;;;;;;13.36;24.17;100801.06;5091158;28;20011;-66
2023/05/01 01:24:37;;;;;;;;;;;;;;;13.28;24.30;100793.16;5097280;28;19919;-66
2023/05/01 01:27:19;;;;;;;;;;;;;;;13.41;23.83;100788.84;5101914;28;19913;-66
2023/05/01 01:29:44;;;;;;;;;;;;;;;13.42;24.34;100793.19;5092264;28;19924;-66
2023/05/01 01:32:33;;;;;;;;;;;;;;;13.36;24.52;100786.75;5091798;28;19965;-65
2023/05/01 01:35:01;;;;;;;;;;;;;;;13.35;24.42;100793.19;5091227;28;20007;-66
2023/05/01 01:37:40;;;;;;;;;;;;;;;13.30;24.35;100779.47;5091027;28;19951;-66
2023/05/01 01:40:31;;;;;;;;;;;;;;;13.27;24.43;100787.94;5089659;28;19938;-66
2023/05/01 01:43:05;;;;;;;;;;;;;;;13.24;24.27;100777.56;5088971;28;19916;-66
2023/05/01 01:45:34;;;;;;;;;;;;;;;13.19;24.92;100783.56;5090791;28;19942;-67
2023/05/01 01:48:01;;;;;;;;;;;;;;;13.18;24.95;100779.19;5090838;28;19926;-66
2023/05/01 01:50:27;;;;;;;;;;;;;;;13.18;25.01;100771.94;5091213;28;19917;-66
2023/05/01 01:52:53;;;;;;;;;;;;;;;13.14;25.18;100770.69;5095619;28;19954;-66
2023/05/01 01:55:24;;;;;;;;;;;;;;;13.07;25.45;100769.00;5095137;28;19955;-65
2023/05/01 01:57:49;;;;;;;;;;;;;;;13.08;25.04;100759.91;5095081;28;19930;-65
2023/05/01 02:00:16;;;;;;;;;;;;;;;13.08;25.45;100765.28;5095504;28;20010;-66
2023/05/01 02:02:42;;;;;;;;;;;;;;;13.06;25.21;100764.66;5095379;28;20007;-66
2023/05/01 02:05:09;;;;;;;;;;;;;;;13.08;25.37;100760.72;5095691;28;20363;-66
2023/05/01 02:07:36;;;;;;;;;;;;;;;13.10;25.05;100764.03;5094960;28;19981;-66
2023/05/01 02:10:03;;;;;;;;;;;;;;;13.07;25.32;100769.84;5095240;28;20379;-66
2023/05/01 02:12:32;;;;;;;;;;;;;;;13.14;24.97;100764.47;5094988;28;19938;-65
2023/05/01 02:14:58;;;;;;;;;;;;;;;13.20;25.21;100760.94;5095399;28;19912;-65
2023/05/01 02:17:26;;;;;;;;;;;;;;;13.33;25.13;100757.47;5094345;28;19923;-66
2023/05/01 02:19:53;;;;;;;;;;;;;;;13.27;25.23;100752.88;5094703;28;19937;-66
2023/05/01 02:22:20;;;;;;;;;;;;;;;13.24;24.84;100751.44;5094101;28;20261;-66
2023/05/01 02:24:46;;;;;;;;;;;;;;;13.10;25.49;100749.75;5094762;28;19912;-65
2023/05/01 02:27:16;;;;;;;;;;;;;;;13.06;25.49;100745.78;5094345;28;20408;-64
2023/05/01 02:29:41;;;;;;;;;;;;;;;12.98;25.43;100750.31;5094049;28;19912;-65
2023/05/01 02:32:07;;;;;;;;;;;;;;;12.94;25.29;100743.66;5094461;28;19914;-66
2023/05/01 02:34:35;;;;;;;;;;;;;;;12.98;26.00;100744.09;5095040;28;19992;-66
2023/05/01 02:37:01;;;;;;;;;;;;;;;13.11;25.55;100743.28;5093785;28;19919;-66
2023/05/01 02:39:26;;;;;;;;;;;;;;;13.23;25.39;100738.16;5094506;28;20337;-66
2023/05/01 02:41:53;;;;;;;;;;;;;;;13.29;25.76;100723.84;5093702;28;19966;-66
2023/05/01 02:44:19;;;;;;;;;;;;;;;13.26;25.62;100730.50;5093683;28;19927;-66
2023/05/01 02:46:46;;;;;;;;;;;;;;;13.24;25.04;100726.31;5094699;28;19912;-66
2023/05/01 02:49:11;;;;;;;;;;;;;;;13.18;25.42;100725.28;5093481;28;20384;-66
2023/05/01 02:51:37;;;;;;;;;;;;;;;13.10;25.19;100726.28;5093913;28;19916;-66
2023/05/01 02:54:02;;;;;;;;;;;;;;;13.14;25.21;100724.84;5094319;28;19912;-66
2023/05/01 02:56:28;;;;;;;;;;;;;;;13.22;25.09;100723.00;5094441;28;19975;-66
2023/05/01 02:58:53;;;;;;;;;;;;;;;13.22;24.82;100723.81;5094599;28;19916;-66
2023/05/01 03:01:19;;;;;;;;;;;;;;;13.21;25.04;100715.97;5093038;28;20311;-66
2023/05/01 03:03:45;;;;;;;;;;;;;;;13.18;25.16;100701.81;5093914;28;19920;-65
2023/05/01 03:06:10;;;;;;;;;;;;;;;13.24;25.87;100707.44;5094490;28;19912;-65
2023/05/01 03:08:35;;;;;;;;;;;;;;;13.26;25.84;100708.06;5094063;28;19954;-65
2023/05/01 03:11:03;;;;;;;;;;;;;;;13.26;26.20;100700.81;5093732;28;19916;-65
2023/05/01 03:13:28;;;;;;;;;;;;;;;13.22;26.14;100696.84;5092887;28;19924;-65
2023/05/01 03:15:54;;;;;;;;;;;;;;;13.18;27.01;100692.91;5093488;28;19946;-66
2023/05/01 03:18:19;;;;;;;;;;;;;;;13.18;26.56;100692.91;5093459;28;19955;-66
2023/05/01 03:20:55;;;;;;;;;;;;;;;13.05;26.14;100679.41;5093521;28;19935;-66
2023/05/01 03:23:22;;;;;;;;;;;;;;;13.07;26.98;100683.53;5093421;28;19912;-67
2023/05/01 03:25:47;;;;;;;;;;;;;;;13.04;27.17;100677.72;5093631;28;19918;-66
2023/05/01 03:28:13;;;;;;;;;;;;;;;13.02;26.79;100675.25;5093688;28;19998;-66
2023/05/01 03:30:38;;;;;;;;;;;;;;;13.10;26.27;100674.25;5093507;28;20253;-66
2023/05/01 03:33:03;;;;;;;;;;;;;;;13.17;26.21;100672.38;5093746;28;19947;-66
2023/05/01 03:35:29;;;;;;;;;;;;;;;13.17;26.73;100675.91;5092957;28;20383;-65
2023/05/01 03:37:55;;;;;;;;;;;;;;;13.07;26.43;100686.25;5091665;28;19916;-66
2023/05/01 03:40:20;;;;;;;;;;;;;;;13.08;26.49;100673.63;5093740;28;19912;-66
2023/05/01 03:42:46;;;;;;;;;;;;;;;13.09;26.93;100678.81;5093473;28;20379;-65
2023/05/01 03:45:11;;;;;;;;;;;;;;;12.77;27.80;100680.38;5093175;28;19912;-67
2023/05/01 03:47:36;;;;;;;;;;;;;;;12.94;27.49;100670.88;5091457;28;20007;-65
2023/05/01 03:50:02;;;;;;;;;;;;;;;12.98;27.54;100666.75;5092876;28;19962;-67
2023/05/01 03:52:27;;;;;;;;;;;;;;;12.84;28.11;100669.63;5093040;28;19912;-67
2023/05/01 03:54:52;;;;;;;;;;;;;;;13.00;27.95;100668.41;5093010;28;20368;-67
2023/05/01 03:57:19;;;;;;;;;;;;;;;13.08;27.50;100665.53;5092860;28;20122;-66
2023/05/01 03:59:45;;;;;;;;;;;;;;;13.14;27.69;100662.00;5092818;28;19912;-67
2023/05/01 04:02:10;;;;;;;;;;;;;;;13.04;28.05;100666.94;5093012;28;19912;-65
2023/05/01 04:04:36;;;;;;;;;;;;;;;12.93;28.60;100665.72;5092740;28;19912;-65
2023/05/01 04:07:01;;;;;;;;;;;;;;;12.82;29.24;100661.75;5091899;28;19981;-66
2023/05/01 04:09:28;;;;;;;;;;;;;;;12.68;29.84;100668.13;5092837;28;19912;-66
2023/05/01 04:11:54;;;;;;;;;;;;;;;12.25;31.79;100674.56;5091888;28;20444;-66
2023/05/01 04:14:19;;;;;;;;;;;;;;;11.94;33.40;100675.00;5093047;28;19976;-67
2023/05/01 04:16:45;;;;;;;;;;;;;;;11.98;34.54;100676.31;5092193;28;19912;-66
2023/05/01 04:19:10;;;;;;;;;;;;;;;11.86;35.77;100669.75;5100554;28;20002;-66
2023/05/01 04:21:36;;;;;;;;;;;;;;;11.86;36.08;100672.44;5097834;28;20006;-66
2023/05/01 04:24:01;;;;;;;;;;;;;;;11.55;37.63;100673.66;5091990;28;19912;-66
2023/05/01 04:26:26;;;;;;;;;;;;;;;11.40;39.46;100674.59;5091854;28;19934;-66
2023/05/01 04:28:52;;;;;;;;;;;;;;;11.13;41.26;100672.69;5090776;28;19919;-65
2023/05/01 04:31:17;;;;;;;;;;;;;;;10.81;42.29;100675.69;5091940;28;19912;-65
2023/05/01 04:33:42;;;;;;;;;;;;;;;10.78;42.89;100678.75;5091702;28;19920;-66
2023/05/01 04:36:08;;;;;;;;;;;;;;;10.63;43.52;100676.09;5092580;28;19916;-65
2023/05/01 04:38:35;;;;;;;;;;;;;;;10.49;43.64;100678.81;5091419;28;20341;-65
2023/05/01 04:41:02;;;;;;;;;;;;;;;10.39;43.83;100673.75;5091449;28;20341;-65
2023/05/01 04:43:27;;;;;;;;;;;;;;;10.38;45.65;100677.44;5091839;28;20356;-66
2023/05/01 04:45:52;;;;;;;;;;;;;;;10.27;45.71;100671.50;5091900;28;20420;-66
2023/05/01 04:48:18;;;;;;;;;;;;;;;10.36;45.95;100676.78;5091693;28;20363;-66
2023/05/01 04:50:43;;;;;;;;;;;;;;;10.37;46.15;100671.22;5091446;28;19939;-66
2023/05/01 04:53:08;;;;;;;;;;;;;;;10.42;46.99;100671.50;5091281;28;19924;-66
2023/05/01 04:55:34;;;;;;;;;;;;;;;10.47;46.60;100679.00;5092145;28;19977;-66
2023/05/01 04:58:01;;;;;;;;;;;;;;;10.01;60.00;100676.47;5091686;28;20269;-66
2023/05/01 05:00:26;;;;;;;;;;;;;;;9.97;61.11;100659.91;5090579;28;20436;-66
2023/05/01 05:02:52;;;;;;;;;;;;;;;9.95;60.76;100661.13;5091978;28;20050;-66
2023/05/01 05:05:17;;;;;;;;;;;;;;;10.11;60.22;100657.44;5091831;28;19999;-66
2023/05/01 05:07:42;;;;;;;;;;;;;;;10.12;58.87;100661.78;5092237;28;20245;-66
2023/05/01 05:10:08;;;;;;;;;;;;;;;9.99;56.40;100649.88;5091702;28;19919;-66
2023/05/01 05:12:33;;;;;;;;;;;;;;;10.05;57.13;100642.91;5091520;28;20013;-67
2023/05/01 05:14:58;;;;;;;;;;;;;;;10.21;55.89;100650.75;5091618;28;19924;-66
2023/05/01 05:17:23;;;;;;;;;;;;;;;10.24;53.61;100650.38;5091377;28;19924;-67
2023/05/01 05:19:49;;;;;;;;;;;;;;;10.41;50.88;100647.53;5090568;28;19926;-67
2023/05/01 05:22:14;;;;;;;;;;;;;;;10.64;50.37;100640.16;5091181;28;19920;-66
2023/05/01 05:24:39;;;;;;;;;;;;;;;10.72;50.61;100649.13;5090866;28;19913;-67
2023/05/01 05:27:06;;;;;;;;;;;;;;;10.81;49.73;100639.94;5091417;28;19920;-67
2023/05/01 05:29:31;;;;;;;;;;;;;;;10.90;49.20;100641.47;5091226;28;20322;-67
2023/05/01 05:31:58;;;;;;;;;;;;;;;11.01;49.34;100629.34;5091337;28;19913;-67
2023/05/01 05:34:23;;;;;;;;;;;;;;;11.04;49.25;100635.19;5091509;28;19912;-66
2023/05/01 05:36:49;;;;;;;;;;;;;;;11.20;48.28;100628.72;5090914;28;19993;-67
2023/05/01 05:39:14;;;;;;;;;;;;;;;11.20;48.73;100628.72;5090267;28;19916;-66
2023/05/01 05:41:39;;;;;;;;;;;;;;;11.25;48.09;100622.75;5091467;28;19970;-66
2023/05/01 05:44:05;;;;;;;;;;;;;;;11.23;49.38;100620.25;5091184;28;19920;-66
2023/05/01 05:46:30;;;;;;;;;;;;;;;11.30;48.50;100617.63;5090994;28;19912;-67
2023/05/01 05:48:55;;;;;;;;;;;;;;;11.51;48.55;100618.59;5091073;28;19919;-67
2023/05/01 05:51:21;;;;;;;;;;;;;;;11.48;48.57;100616.31;5090901;28;19912;-67
2023/05/01 05:53:46;;;;;;;;;;;;;;;11.36;47.78;100616.03;5090885;28;19942;-67
2023/05/01 05:56:11;;;;;;;;;;;;;;;11.55;47.87;100611.81;5090212;28;19947;-67
2023/05/01 05:58:36;;;;;;;;;;;;;;;11.53;48.98;100603.09;5090928;28;19965;-67
2023/05/01 06:01:02;;;;;;;;;;;;;;;11.57;48.00;100607.91;5090658;28;20253;-66
2023/05/01 06:03:27;;;;;;;;;;;;;;;11.68;48.95;100601.16;5090747;28;20014;-67
2023/05/01 06:05:53;;;;;;;;;;;;;;;11.73;49.09;100595.16;5091028;28;19920;-66
2023/05/01 06:08:18;;;;;;;;;;;;;;;11.69;47.61;100594.72;5090815;28;19977;-66
2023/05/01 06:10:43;;;;;;;;;;;;;;;11.71;48.51;100589.16;5091140;28;19916;-66
2023/05/01 06:13:09;;;;;;;;;;;;;;;11.78;48.63;100588.16;5090793;28;19949;-67
2023/05/01 06:15:36;;;;;;;;;;;;;;;11.81;48.28;100585.09;5088988;28;20008;-66
2023/05/01 06:18:01;;;;;;;;;;;;;;;11.79;46.99;100584.47;5090674;28;19912;-66
2023/05/01 06:20:26;;;;;;;;;;;;;;;11.81;48.05;100579.69;5090777;28;19973;-66
2023/05/01 06:22:52;;;;;;;;;;;;;;;11.96;48.85;100581.44;5090731;28;19920;-66
2023/05/01 06:25:18;;;;;;;;;;;;;;;11.98;48.54;100568.63;5091192;28;19912;-67
2023/05/01 06:27:43;;;;;;;;;;;;;;;12.01;48.67;100571.72;5089366;28;19992;-66
2023/05/01 06:30:09;;;;;;;;;;;;;;;11.95;48.13;100563.66;5090981;28;20012;-67
2023/05/01 06:32:35;;;;;;;;;;;;;;;11.97;47.58;100565.09;5090326;28;19976;-66
2023/05/01 06:35:00;;;;;;;;;;;;;;;11.99;48.86;100562.22;5090922;28;19916;-66
2023/05/01 06:37:25;;;;;;;;;;;;;;;12.07;48.21;100558.50;5092909;28;19912;-66
2023/05/01 06:39:50;;;;;;;;;;;;;;;12.07;47.85;100550.44;5094294;28;19938;-66
2023/05/01 06:42:16;;;;;;;;;;;;;;;12.11;47.66;100551.69;5094866;28;19920;-66
2023/05/01 06:44:41;;;;;;;;;;;;;;;12.14;48.58;100549.41;5094451;28;19912;-66
2023/05/01 06:47:07;;;;;;;;;;;;;;;12.13;48.42;100539.69;5094567;28;20003;-66
2023/05/01 06:49:32;;;;;;;;;;;;;;;12.20;48.64;100537.88;5094456;28;19912;-66
2023/05/01 06:51:58;;;;;;;;;;;;;;;12.27;47.31;100529.78;5094011;28;20461;-67
2023/05/01 06:54:23;;;;;;;;;;;;;;;12.28;48.05;100539.53;5094072;28;20868;-66
2023/05/01 06:56:49;;;;;;;;;;;;;;;12.30;47.68;100528.56;5094117;28;19920;-66
2023/05/01 06:59:14;;;;;;;;;;;;;;;12.42;48.25;100529.63;5093652;28;19916;-66
2023/05/01 07:01:39;;;;;;;;;;;;;;;12.50;48.33;100537.53;5094309;28;19916;-66
2023/05/01 07:04:05;;;;;;;;;;;;;;;12.45;46.97;100529.22;5094555;28;20006;-66
2023/05/01 07:06:31;;;;;;;;;;;;;;;12.52;48.46;100524.69;5100735;28;19973;-66
2023/05/01 07:08:56;;;;;;;;;;;;;;;12.49;47.70;100525.06;5104247;28;19916;-66
2023/05/01 07:11:22;;;;;;;;;;;;;;;12.61;47.36;100521.78;5093789;28;20451;-66
2023/05/01 07:13:47;;;;;;;;;;;;;;;12.65;46.97;100523.88;5093519;28;19915;-65
2023/05/01 07:16:13;;;;;;;;;;;;;;;12.61;47.43;100519.94;5093848;28;19916;-66
2023/05/01 07:18:39;;;;;;;;;;;;;;;12.62;46.81;100520.75;5093514;28;20342;-66
2023/05/01 07:21:04;;;;;;;;;;;;;;;12.71;48.08;100523.03;5093048;28;19920;-66
2023/05/01 07:23:30;;;;;;;;;;;;;;;12.71;47.35;100514.94;5091975;28;19924;-65
2023/05/01 07:25:55;;;;;;;;;;;;;;;12.66;46.05;100508.53;5093901;28;19955;-66
2023/05/01 07:28:21;;;;;;;;;;;;;;;12.63;47.74;100514.31;5093573;28;19918;-66
2023/05/01 07:30:47;;;;;;;;;;;;;;;12.62;47.10;100504.59;5093921;28;19916;-66
2023/05/01 07:33:12;;;;;;;;;;;;;;;12.58;46.86;100520.34;5093709;28;20292;-66
2023/05/01 07:35:37;;;;;;;;;;;;;;;12.56;47.06;100507.06;5093286;28;19916;-68
2023/05/01 07:38:03;;;;;;;;;;;;;;;12.65;46.75;100496.91;5092225;28;19912;-66
2023/05/01 07:40:28;;;;;;;;;;;;;;;12.72;47.87;100494.22;5091894;28;20723;-67
2023/05/01 07:42:54;;;;;;;;;;;;;;;12.68;46.82;100491.09;5093336;28;19924;-66
2023/05/01 07:45:19;;;;;;;;;;;;;;;12.71;45.86;100482.63;5093140;28;20088;-66
2023/05/01 07:47:44;;;;;;;;;;;;;;;12.83;46.38;100485.50;5092033;28;19912;-65
2023/05/01 07:50:10;;;;;;;;;;;;;;;12.90;47.54;100480.94;5092861;28;19939;-66
2023/05/01 07:52:36;;;;;;;;;;;;;;;12.79;46.56;100477.00;5092853;28;19912;-67
2023/05/01 07:55:01;;;;;;;;;;;;;;;12.81;47.09;100475.97;5092302;28;20399;-67
2023/05/01 07:57:27;;;;;;;;;;;;;;;12.85;47.19;100478.06;5092704;28;20287;-67
2023/05/01 07:59:53;;;;;;;;;;;;;;;12.94;47.01;100474.09;5093568;28;19912;-67
2023/05/01 08:02:19;;;;;;;;;;;;;;;13.02;46.59;100477.59;5093418;28;19924;-67
2023/05/01 08:04:44;;;;;;;;;;;;;;;12.92;47.05;100456.47;5093351;28;20010;-67
2023/05/01 08:07:10;;;;;;;;;;;;;;;12.96;47.21;100460.41;5093023;28;19966;-67
2023/05/01 08:09:35;;;;;;;;;;;;;;;12.98;47.01;100469.09;5093345;28;19919;-67
2023/05/01 08:12:02;;;;;;;;;;;;;;;12.98;46.25;100466.41;5093140;28;19977;-67
2023/05/01 08:14:28;;;;;;;;;;;;;;;13.07;47.50;100454.38;5093207;28;19927;-67
2023/05/01 08:16:54;;;;;;;;;;;;;;;13.07;46.07;100453.56;5092724;28;19912;-67
2023/05/01 08:19:19;;;;;;;;;;;;;;;12.99;46.45;100454.59;5091064;28;20326;-66
2023/05/01 08:21:45;;;;;;;;;;;;;;;12.95;46.22;100451.50;5092695;28;19942;-66
2023/05/01 08:24:10;;;;;;;;;;;;;;;13.09;46.78;100448.78;5092470;28;19964;-66
2023/05/01 08:26:35;;;;;;;;;;;;;;;13.29;47.59;100444.16;5092673;28;19939;-66
2023/05/01 08:29:01;;;;;;;;;;;;;;;13.47;47.27;100440.81;5092534;28;19912;-66
2023/05/01 08:31:26;;;;;;;;;;;;;;;13.54;46.40;100447.03;5092274;28;19923;-68
2023/05/01 08:33:51;;;;;;;;;;;;;;;13.63;47.33;100444.06;5092655;28;20002;-67
2023/05/01 08:36:17;;;;;;;;;;;;;;;13.62;47.15;100435.16;5092486;28;19916;-65
2023/05/01 08:38:42;;;;;;;;;;;;;;;13.53;46.67;100433.75;5091772;28;19912;-66
2023/05/01 08:41:08;;;;;;;;;;;;;;;13.54;46.77;100421.91;5091668;28;20273;-66
2023/05/01 08:43:34;;;;;;;;;;;;;;;13.57;46.85;100423.34;5092747;28;20033;-66
2023/05/01 08:46:00;;;;;;;;;;;;;;;13.57;45.80;100423.34;5091599;28;19916;-66
2023/05/01 08:48:27;;;;;;;;;;;;;;;13.51;45.49;100422.34;5092414;28;19912;-66
2023/05/01 08:50:54;;;;;;;;;;;;;;;13.50;47.47;100416.13;5092536;28;19918;-66
2023/05/01 08:53:21;;;;;;;;;;;;;;;13.53;46.94;100407.56;5091839;28;19920;-64
2023/05/01 08:55:47;;;;;;;;;;;;;;;13.51;46.10;100398.06;5091620;28;20332;-64
2023/05/01 08:58:13;;;;;;;;;;;;;;;13.53;45.56;100404.06;5091916;28;20311;-64
2023/05/01 09:00:40;;;;;;;;;;;;;;;13.60;46.44;100398.66;5092010;28;19919;-64
2023/05/01 09:03:07;;;;;;;;;;;;;;;13.73;45.49;100391.28;5091790;28;20321;-64
2023/05/01 09:05:32;;;;;;;;;;;;;;;13.85;44.75;100385.19;5092044;28;20308;-64
2023/05/01 09:07:58;;;;;;;;;;;;;;;13.61;45.35;100328.25;5091111;28;19913;-63
2023/05/01 09:10:23;;;;;;;;;;;;;;;13.98;44.32;100371.63;5092237;28;19916;-65
2023/05/01 09:12:55;;;;;;;;;;;;;;;13.99;44.47;100372.47;5091563;28;19920;-65
2023/05/01 09:15:20;;;;;;;;;;;;;;;13.97;44.88;100382.63;5091729;28;20459;-65
2023/05/01 09:17:46;;;;;;;;;;;;;;;13.92;45.30;100376.00;5092606;28;19916;-65
2023/05/01 09:20:12;;;;;;;;;;;;;;;14.06;44.33;100367.81;5092017;28;20391;-65
2023/05/01 09:22:37;;;;;;;;;;;;;;;14.18;44.00;100357.16;5092304;28;19920;-65
2023/05/01 09:25:03;;;;;;;;;;;;;;;14.22;44.43;100355.66;5092257;28;19916;-65
2023/05/01 09:27:32;;;;;;;;;;;;;;;14.59;46.53;100353.91;5092367;28;19922;-65
2023/05/01 09:29:57;;;;;;;;;;;;;;;14.87;44.18;100356.09;5091963;28;19935;-65
2023/05/01 09:32:24;;;;;;;;;;;;;;;14.81;44.13;100357.00;5091987;28;19912;-64
2023/05/01 09:34:50;;;;;;;;;;;;;;;14.85;45.16;100349.28;5091289;28;20090;-65
2023/05/01 09:37:30;;;;;;;;;;;;;;;15.02;43.29;100349.50;5090829;28;20014;-66
2023/05/01 09:40:05;;;;;;;;;;;;;;;15.26;45.60;100324.22;5090828;28;19912;-65
2023/05/01 09:42:33;;;;;;;;;;;;;;;15.43;42.66;100332.56;5092037;28;19970;-65
2023/05/01 09:45:00;;;;;;;;;;;;;;;15.80;45.12;100323.50;5091983;28;19912;-65
2023/05/01 09:47:28;;;;;;;;;;;;;;;15.98;44.11;100330.75;5090368;28;20451;-65
2023/05/01 09:49:55;;;;;;;;;;;;;;;16.20;43.99;100320.16;5092428;28;19913;-66
2023/05/01 09:52:21;;;;;;;;;;;;;;;16.34;42.80;100318.88;5090446;28;19912;-65
2023/05/01 09:54:46;;;;;;;;;;;;;;;16.20;42.27;100322.88;5093560;28;19912;-65
2023/05/01 09:57:11;;;;;;;;;;;;;;;15.99;42.91;100313.41;5096633;28;19958;-66
2023/05/01 09:59:37;;;;;;;;;;;;;;;15.93;41.81;100317.06;5093935;28;19912;-66
2023/05/01 10:02:03;;;;;;;;;;;;;;;15.76;41.34;100319.63;5090429;28;20245;-65
2023/05/01 10:04:29;;;;;;;;;;;;;;;15.49;43.38;100315.38;5090850;28;19968;-65
2023/05/01 10:06:54;;;;;;;;;;;;;;;15.29;41.16;100314.84;5091319;28;19941;-66
2023/05/01 10:09:26;;;;;;;;;;;;;;;15.12;41.83;100308.38;5091446;28;19916;-65
2023/05/01 10:11:54;;;;;;;;;;;;;;;15.05;43.91;100303.91;5092675;28;20353;-66
2023/05/01 10:14:22;;;;;;;;;;;;;;;14.81;44.35;100305.63;5094625;28;19968;-66
2023/05/01 10:16:48;;;;;;;;;;;;;;;14.71;43.69;100295.34;5095245;28;19920;-65
2023/05/01 10:19:15;;;;;;;;;;;;;;;14.41;43.05;100292.53;5095054;28;19912;-66
2023/05/01 10:21:41;;;;;;;;;;;;;;;14.37;43.47;100288.59;5087546;28;19916;-63
2023/05/01 10:24:08;;;;;;;;;;;;;;;14.30;43.78;100287.84;5092265;28;20359;-62
2023/05/01 10:26:34;;;;;;;;;;;;;;;14.31;42.96;100287.63;5092615;28;19956;-62
2023/05/01 10:29:00;;;;;;;;;;;;;;;14.39;42.79;100285.69;5094439;28;20106;-61
2023/05/01 10:31:26;;;;;;;;;;;;;;;14.46;42.77;100281.03;5091947;28;19919;-61
2023/05/01 10:33:52;;;;;;;;;;;;;;;14.65;43.46;100280.03;5094007;28;20322;-62
2023/05/01 10:36:21;;;;;;;;;;;;;;;14.81;44.22;100278.59;5091662;28;19912;-62
2023/05/01 10:38:47;;;;;;;;;;;;;;;14.87;43.72;100272.28;5093360;28;19916;-64
2023/05/01 10:41:15;;;;;;;;;;;;;;;14.79;41.77;100275.28;5093519;28;19961;-63
2023/05/01 10:43:41;;;;;;;;;;;;;;;14.97;43.19;100273.63;5090653;28;19916;-64
2023/05/01 10:46:06;;;;;;;;;;;;;;;15.11;43.06;100275.09;5094349;28;20370;-66
2023/05/01 10:48:38;;;;;;;;;;;;;;;15.31;43.15;100277.56;5090682;28;19969;-64
2023/05/01 10:51:11;;;;;;;;;;;;;;;15.60;41.60;100272.34;5094003;28;20376;-65
2023/05/01 10:53:36;;;;;;;;;;;;;;;15.78;43.37;100274.19;5092616;28;20493;-65
2023/05/01 10:56:04;;;;;;;;;;;;;;;15.82;41.80;100261.81;5092147;28;20359;-65
2023/05/01 10:58:36;;;;;;;;;;;;;;;15.98;42.80;100261.13;5091684;28;19927;-64
2023/05/01 11:01:20;;;;;;;;;;;;;;;15.97;40.99;100255.94;5090923;28;19938;-64
2023/05/01 11:03:45;;;;;;;;;;;;;;;16.14;42.77;100250.66;5091947;28;19969;-65
2023/05/01 11:06:11;;;;;;;;;;;;;;;16.23;43.61;100241.09;5092545;28;19915;-65
2023/05/01 11:08:37;;;;;;;;;;;;;;;16.40;42.25;100241.19;5093089;28;19937;-65
2023/05/01 11:11:21;;;;;;;;;;;;;;;16.53;39.84;100240.13;5094301;28;20010;-65
2023/05/01 11:14:06;;;;;;;;;;;;;;;16.72;42.39;100240.81;5089961;28;19924;-65
2023/05/01 11:16:44;;;;;;;;;;;;;;;16.78;41.67;100237.13;5091917;28;19919;-65
2023/05/01 11:19:22;;;;;;;;;;;;;;;16.82;39.59;100233.72;5089454;28;19926;-65
2023/05/01 11:21:49;;;;;;;;;;;;;;;16.83;40.33;100229.94;5093735;28;19947;-64
2023/05/01 11:24:16;;;;;;;;;;;;;;;16.86;40.18;100234.06;5090169;28;19927;-64
2023/05/01 11:26:42;;;;;;;;;;;;;;;16.80;41.48;100229.56;5090292;28;20007;-64
2023/05/01 11:29:10;;;;;;;;;;;;;;;16.75;39.96;100227.59;5093763;28;20019;-64
2023/05/01 11:31:36;;;;;;;;;;;;;;;16.90;38.43;100212.69;5090858;28;19912;-64
2023/05/01 11:34:02;;;;;;;;;;;;;;;17.28;40.57;100208.53;5092184;28;19916;-64
2023/05/01 11:36:28;;;;;;;;;;;;;;;17.56;38.09;100216.63;5093182;28;19912;-65
2023/05/01 11:38:57;;;;;;;;;;;;;;;17.61;40.74;100210.47;5090609;28;20364;-64
2023/05/01 11:41:23;;;;;;;;;;;;;;;17.75;36.96;100219.91;5092983;28;19919;-64
2023/05/01 11:43:56;;;;;;;;;;;;;;;18.07;41.08;100213.09;5091188;28;19995;-64
2023/05/01 11:46:26;;;;;;;;;;;;;;;18.25;38.20;100212.00;5091892;28;20473;-64
2023/05/01 11:48:52;;;;;;;;;;;;;;;18.29;38.14;100210.41;5092225;28;19935;-65
2023/05/01 11:51:17;;;;;;;;;;;;;;;18.48;36.30;100217.19;5091763;28;19916;-64
2023/05/01 11:53:56;;;;;;;;;;;;;;;18.93;37.97;100202.53;5092878;28;19912;-64
2023/05/01 11:56:22;;;;;;;;;;;;;;;19.26;37.54;100210.75;5090085;28;19947;-64
2023/05/01 11:58:47;;;;;;;;;;;;;;;19.53;39.34;100200.63;5092961;28;19963;-65
2023/05/01 12:01:13;;;;;;;;;;;;;;;19.85;37.63;100199.81;5092095;28;20289;-64
2023/05/01 12:03:41;;;;;;;;;;;;;;;20.03;37.87;100197.78;5091545;28;20353;-64
2023/05/01 12:06:07;;;;;;;;;;;;;;;20.48;36.06;100193.63;5091618;28;19916;-65
2023/05/01 12:08:32;;;;;;;;;;;;;;;20.87;38.28;100185.06;5090116;28;20356;-64
2023/05/01 12:10:58;;;;;;;;;;;;;;;21.02;36.04;100185.13;5092602;28;19969;-64
2023/05/01 12:13:24;;;;;;;;;;;;;;;20.92;33.59;100182.34;5090929;28;19963;-65
2023/05/01 12:15:51;;;;;;;;;;;;;;;21.05;38.27;100170.09;5090560;28;20315;-65
2023/05/01 12:18:17;;;;;;;;;;;;;;;21.38;35.48;100160.56;5092212;28;19916;-65
2023/05/01 12:20:46;;;;;;;;;;;;;;;21.96;36.07;100157.53;5089410;28;19920;-65
2023/05/01 12:23:12;;;;;;;;;;;;;;;22.53;33.75;100160.91;5090406;28;19920;-65
2023/05/01 12:25:38;;;;;;;;;;;;;;;22.92;33.70;100151.94;5091479;28;20015;-65
2023/05/01 12:28:11;;;;;;;;;;;;;;;23.13;31.59;100155.38;5089593;28;19926;-62
2023/05/01 12:30:37;;;;;;;;;;;;;;;23.41;31.69;100158.47;5092207;28;19912;-64
2023/05/01 12:33:13;;;;;;;;;;;;;;;23.62;29.97;100148.13;5072128;28;19919;-62
2023/05/01 12:35:39;;;;;;;;;;;;;;;23.63;29.38;100148.97;5092490;28;20281;-63